sensor_id;sensor_type;location;lat;lon;timestamp;P1;durP1;ratioP1;P2;durP2;ratioP2
71671;SDS011;67659;45.554;11.812;2023-05-07T00:00:57;12.10;;;7.47;;
71671;SDS011;67659;45.554;11.812;2023-05-07T00:03:24;13.18;;;7.65;;
71671;SDS011;67659;45.554;11.812;2023-05-07T00:05:51;12.23;;;7.17;;
71671;SDS011;67659;45.554;11.812;2023-05-07T00:08:18;11.55;;;7.35;;
71671;SDS011;67659;45.554;11.812;2023-05-07T00:10:45;12.00;;;7.00;;
71671;SDS011;67659;45.554;11.812;2023-05-07T00:13:11;11.55;;;6.90;;
71671;SDS011;67659;45.554;11.812;2023-05-07T00:15:37;10.68;;;6.78;;
71671;SDS011;67659;45.554;11.812;2023-05-07T00:18:03;11.70;;;7.30;;
71671;SDS011;67659;45.554;11.812;2023-05-07T00:20:29;10.65;;;6.72;;
71671;SDS011;67659;45.554;11.812;2023-05-07T00:22:55;11.20;;;7.13;;
71671;SDS011;67659;45.554;11.812;2023-05-07T00:25:21;10.52;;;6.72;;
71671;SDS011;67659;45.554;11.812;2023-05-07T00:27:47;12.57;;;7.07;;
71671;SDS011;67659;45.554;11.812;2023-05-07T00:30:13;10.45;;;6.60;;
71671;SDS011;67659;45.554;11.812;2023-05-07T00:32:39;11.30;;;7.18;;
71671;SDS011;67659;45.554;11.812;2023-05-07T00:35:06;11.48;;;6.90;;
71671;SDS011;67659;45.554;11.812;2023-05-07T00:37:32;10.88;;;6.85;;
71671;SDS011;67659;45.554;11.812;2023-05-07T00:39:58;12.33;;;7.00;;
71671;SDS011;67659;45.554;11.812;2023-05-07T00:42:24;11.70;;;7.07;;
71671;SDS011;67659;45.554;11.812;2023-05-07T00:44:50;12.85;;;7.00;;
71671;SDS011;67659;45.554;11.812;2023-05-07T00:47:16;11.40;;;7.00;;
71671;SDS011;67659;45.554;11.812;2023-05-07T00:49:42;10.97;;;6.67;;
71671;SDS011;67659;45.554;11.812;2023-05-07T00:52:11;10.88;;;7.03;;
71671;SDS011;67659;45.554;11.812;2023-05-07T00:54:40;10.45;;;6.95;;
71671;SDS011;67659;45.554;11.812;2023-05-07T00:57:06;10.52;;;6.70;;
71671;SDS011;67659;45.554;11.812;2023-05-07T00:59:36;10.93;;;6.60;;
71671;SDS011;67659;45.554;11.812;2023-05-07T01:02:02;12.10;;;6.10;;
71671;SDS011;67659;45.554;11.812;2023-05-07T01:04:28;11.13;;;6.45;;
71671;SDS011;67659;45.554;11.812;2023-05-07T01:06:54;10.40;;;6.70;;
71671;SDS011;67659;45.554;11.812;2023-05-07T01:09:21;11.00;;;6.57;;
71671;SDS011;67659;45.554;11.812;2023-05-07T01:11:49;11.63;;;6.90;;
71671;SDS011;67659;45.554;11.812;2023-05-07T01:14:15;10.63;;;6.80;;
71671;SDS011;67659;45.554;11.812;2023-05-07T01:16:42;11.45;;;6.60;;
71671;SDS011;67659;45.554;11.812;2023-05-07T01:19:08;10.98;;;6.53;;
71671;SDS011;67659;45.554;11.812;2023-05-07T01:21:36;10.35;;;6.03;;
71671;SDS011;67659;45.554;11.812;2023-05-07T01:24:04;9.43;;;6.18;;
71671;SDS011;67659;45.554;11.812;2023-05-07T01:26:30;11.03;;;5.93;;
71671;SDS011;67659;45.554;11.812;2023-05-07T01:28:56;11.05;;;6.95;;
71671;SDS011;67659;45.554;11.812;2023-05-07T01:31:22;9.88;;;6.45;;
71671;SDS011;67659;45.554;11.812;2023-05-07T01:33:49;10.52;;;6.63;;
71671;SDS011;67659;45.554;11.812;2023-05-07T01:36:17;9.63;;;6.23;;
71671;SDS011;67659;45.554;11.812;2023-05-07T01:38:46;9.38;;;6.15;;
71671;SDS011;67659;45.554;11.812;2023-05-07T01:41:12;9.75;;;6.32;;
71671;SDS011;67659;45.554;11.812;2023-05-07T01:43:38;10.52;;;6.05;;
71671;SDS011;67659;45.554;11.812;2023-05-07T01:46:06;9.75;;;6.35;;
71671;SDS011;67659;45.554;11.812;2023-05-07T01:48:34;10.20;;;6.60;;
71671;SDS011;67659;45.554;11.812;2023-05-07T01:51:01;10.68;;;6.25;;
71671;SDS011;67659;45.554;11.812;2023-05-07T01:53:28;11.00;;;6.30;;
71671;SDS011;67659;45.554;11.812;2023-05-07T01:55:54;10.32;;;6.45;;
71671;SDS011;67659;45.554;11.812;2023-05-07T01:58:19;10.83;;;6.60;;
71671;SDS011;67659;45.554;11.812;2023-05-07T02:00:45;15.77;;;6.65;;
71671;SDS011;67659;45.554;11.812;2023-05-07T02:03:11;10.50;;;6.30;;
71671;SDS011;67659;45.554;11.812;2023-05-07T02:05:37;9.53;;;5.77;;
71671;SDS011;67659;45.554;11.812;2023-05-07T02:08:03;9.82;;;6.22;;
71671;SDS011;67659;45.554;11.812;2023-05-07T02:10:29;9.70;;;6.00;;
71671;SDS011;67659;45.554;11.812;2023-05-07T02:12:54;9.37;;;6.10;;
71671;SDS011;67659;45.554;11.812;2023-05-07T02:15:20;10.27;;;6.60;;
71671;SDS011;67659;45.554;11.812;2023-05-07T02:20:34;9.77;;;5.87;;
71671;SDS011;67659;45.554;11.812;2023-05-07T02:23:00;9.90;;;6.30;;
71671;SDS011;67659;45.554;11.812;2023-05-07T02:25:26;9.10;;;5.78;;
71671;SDS011;67659;45.554;11.812;2023-05-07T02:27:51;9.50;;;6.23;;
71671;SDS011;67659;45.554;11.812;2023-05-07T02:30:17;9.05;;;5.53;;
71671;SDS011;67659;45.554;11.812;2023-05-07T02:32:44;9.90;;;6.03;;
71671;SDS011;67659;45.554;11.812;2023-05-07T02:35:10;9.52;;;5.90;;
71671;SDS011;67659;45.554;11.812;2023-05-07T02:37:36;9.67;;;5.70;;
71671;SDS011;67659;45.554;11.812;2023-05-07T02:40:02;8.68;;;5.90;;
71671;SDS011;67659;45.554;11.812;2023-05-07T02:42:29;11.07;;;6.05;;
71671;SDS011;67659;45.554;11.812;2023-05-07T02:44:55;9.13;;;5.53;;
71671;SDS011;67659;45.554;11.812;2023-05-07T02:47:21;9.82;;;6.10;;
71671;SDS011;67659;45.554;11.812;2023-05-07T02:49:47;10.82;;;6.13;;
71671;SDS011;67659;45.554;11.812;2023-05-07T02:52:13;10.45;;;6.00;;
71671;SDS011;67659;45.554;11.812;2023-05-07T02:54:39;9.77;;;6.37;;
71671;SDS011;67659;45.554;11.812;2023-05-07T02:57:05;9.35;;;5.95;;
71671;SDS011;67659;45.554;11.812;2023-05-07T02:59:30;9.50;;;6.13;;
71671;SDS011;67659;45.554;11.812;2023-05-07T03:01:56;12.07;;;6.10;;
71671;SDS011;67659;45.554;11.812;2023-05-07T03:04:22;9.15;;;5.78;;
71671;SDS011;67659;45.554;11.812;2023-05-07T03:06:48;9.77;;;5.68;;
71671;SDS011;67659;45.554;11.812;2023-05-07T03:09:14;9.23;;;5.63;;
71671;SDS011;67659;45.554;11.812;2023-05-07T03:11:40;9.52;;;6.07;;
71671;SDS011;67659;45.554;11.812;2023-05-07T03:14:06;10.07;;;5.95;;
71671;SDS011;67659;45.554;11.812;2023-05-07T03:16:33;10.75;;;6.05;;
71671;SDS011;67659;45.554;11.812;2023-05-07T03:18:59;13.47;;;6.17;;
71671;SDS011;67659;45.554;11.812;2023-05-07T03:21:25;9.15;;;5.80;;
71671;SDS011;67659;45.554;11.812;2023-05-07T03:23:51;8.85;;;6.05;;
71671;SDS011;67659;45.554;11.812;2023-05-07T03:26:17;10.95;;;6.20;;
71671;SDS011;67659;45.554;11.812;2023-05-07T03:28:43;8.17;;;5.47;;
71671;SDS011;67659;45.554;11.812;2023-05-07T03:31:09;10.30;;;6.07;;
71671;SDS011;67659;45.554;11.812;2023-05-07T03:33:35;11.07;;;5.65;;
71671;SDS011;67659;45.554;11.812;2023-05-07T03:36:04;9.05;;;5.80;;
71671;SDS011;67659;45.554;11.812;2023-05-07T03:38:30;10.53;;;6.17;;
71671;SDS011;67659;45.554;11.812;2023-05-07T03:40:56;11.90;;;5.82;;
71671;SDS011;67659;45.554;11.812;2023-05-07T03:43:21;9.75;;;5.78;;
71671;SDS011;67659;45.554;11.812;2023-05-07T03:45:47;8.90;;;5.57;;
71671;SDS011;67659;45.554;11.812;2023-05-07T03:48:13;9.23;;;5.35;;
71671;SDS011;67659;45.554;11.812;2023-05-07T03:50:39;9.23;;;5.57;;
71671;SDS011;67659;45.554;11.812;2023-05-07T03:53:05;9.98;;;5.70;;
71671;SDS011;67659;45.554;11.812;2023-05-07T03:55:31;9.40;;;6.00;;
71671;SDS011;67659;45.554;11.812;2023-05-07T03:57:56;9.38;;;6.00;;
71671;SDS011;67659;45.554;11.812;2023-05-07T04:00:22;8.40;;;5.27;;
71671;SDS011;67659;45.554;11.812;2023-05-07T04:02:48;9.82;;;5.72;;
71671;SDS011;67659;45.554;11.812;2023-05-07T04:05:14;9.48;;;5.50;;
71671;SDS011;67659;45.554;11.812;2023-05-07T04:07:41;10.57;;;5.50;;
71671;SDS011;67659;45.554;11.812;2023-05-07T04:10:06;10.33;;;5.97;;
71671;SDS011;67659;45.554;11.812;2023-05-07T04:12:33;8.32;;;5.38;;
71671;SDS011;67659;45.554;11.812;2023-05-07T04:14:59;8.80;;;5.45;;
71671;SDS011;67659;45.554;11.812;2023-05-07T04:17:25;9.80;;;5.50;;
71671;SDS011;67659;45.554;11.812;2023-05-07T04:19:50;9.63;;;5.60;;
71671;SDS011;67659;45.554;11.812;2023-05-07T04:22:16;8.32;;;5.10;;
71671;SDS011;67659;45.554;11.812;2023-05-07T04:24:42;9.10;;;5.57;;
71671;SDS011;67659;45.554;11.812;2023-05-07T04:27:08;9.00;;;5.40;;
71671;SDS011;67659;45.554;11.812;2023-05-07T04:29:34;10.18;;;5.40;;
71671;SDS011;67659;45.554;11.812;2023-05-07T04:32:00;8.52;;;5.32;;
71671;SDS011;67659;45.554;11.812;2023-05-07T04:34:26;9.95;;;5.63;;
71671;SDS011;67659;45.554;11.812;2023-05-07T04:36:52;9.20;;;5.13;;
71671;SDS011;67659;45.554;11.812;2023-05-07T04:39:18;8.35;;;4.90;;
71671;SDS011;67659;45.554;11.812;2023-05-07T04:41:44;9.00;;;5.22;;
71671;SDS011;67659;45.554;11.812;2023-05-07T04:44:09;8.13;;;5.20;;
71671;SDS011;67659;45.554;11.812;2023-05-07T04:46:36;8.05;;;5.00;;
71671;SDS011;67659;45.554;11.812;2023-05-07T04:49:01;8.38;;;5.20;;
71671;SDS011;67659;45.554;11.812;2023-05-07T04:51:28;8.18;;;5.30;;
71671;SDS011;67659;45.554;11.812;2023-05-07T04:53:54;7.97;;;4.90;;
71671;SDS011;67659;45.554;11.812;2023-05-07T04:56:20;8.13;;;5.30;;
71671;SDS011;67659;45.554;11.812;2023-05-07T04:58:46;9.93;;;5.03;;
71671;SDS011;67659;45.554;11.812;2023-05-07T05:01:12;8.57;;;4.97;;
71671;SDS011;67659;45.554;11.812;2023-05-07T05:03:37;9.52;;;4.72;;
71671;SDS011;67659;45.554;11.812;2023-05-07T05:06:04;8.45;;;4.90;;
71671;SDS011;67659;45.554;11.812;2023-05-07T05:08:30;8.43;;;5.00;;
71671;SDS011;67659;45.554;11.812;2023-05-07T05:10:56;8.77;;;4.77;;
71671;SDS011;67659;45.554;11.812;2023-05-07T05:13:22;9.90;;;5.40;;
71671;SDS011;67659;45.554;11.812;2023-05-07T05:15:48;7.55;;;4.85;;
71671;SDS011;67659;45.554;11.812;2023-05-07T05:18:14;8.93;;;4.70;;
71671;SDS011;67659;45.554;11.812;2023-05-07T05:20:40;11.38;;;4.80;;
71671;SDS011;67659;45.554;11.812;2023-05-07T05:23:07;9.70;;;4.97;;
71671;SDS011;67659;45.554;11.812;2023-05-07T05:25:33;8.82;;;5.00;;
71671;SDS011;67659;45.554;11.812;2023-05-07T05:27:59;8.87;;;4.90;;
71671;SDS011;67659;45.554;11.812;2023-05-07T05:30:25;15.75;;;5.30;;
71671;SDS011;67659;45.554;11.812;2023-05-07T05:32:51;10.60;;;5.65;;
71671;SDS011;67659;45.554;11.812;2023-05-07T05:35:17;11.10;;;5.13;;
71671;SDS011;67659;45.554;11.812;2023-05-07T05:37:42;9.80;;;4.90;;
71671;SDS011;67659;45.554;11.812;2023-05-07T05:40:08;9.55;;;4.97;;
71671;SDS011;67659;45.554;11.812;2023-05-07T05:42:35;12.40;;;6.00;;
71671;SDS011;67659;45.554;11.812;2023-05-07T05:45:01;9.70;;;5.20;;
71671;SDS011;67659;45.554;11.812;2023-05-07T05:47:27;12.00;;;5.80;;
71671;SDS011;67659;45.554;11.812;2023-05-07T05:49:53;9.88;;;5.78;;
71671;SDS011;67659;45.554;11.812;2023-05-07T05:52:19;10.18;;;5.30;;
71671;SDS011;67659;45.554;11.812;2023-05-07T05:54:45;12.10;;;5.55;;
71671;SDS011;67659;45.554;11.812;2023-05-07T05:59:46;9.38;;;5.40;;
71671;SDS011;67659;45.554;11.812;2023-05-07T06:02:12;12.23;;;5.57;;
71671;SDS011;67659;45.554;11.812;2023-05-07T06:04:38;8.07;;;5.10;;
71671;SDS011;67659;45.554;11.812;2023-05-07T06:07:04;9.77;;;5.30;;
71671;SDS011;67659;45.554;11.812;2023-05-07T06:09:30;9.32;;;5.60;;
71671;SDS011;67659;45.554;11.812;2023-05-07T06:11:55;10.03;;;5.77;;
71671;SDS011;67659;45.554;11.812;2023-05-07T06:14:21;12.88;;;6.03;;
71671;SDS011;67659;45.554;11.812;2023-05-07T06:16:47;10.43;;;5.85;;
71671;SDS011;67659;45.554;11.812;2023-05-07T06:19:13;10.77;;;5.60;;
71671;SDS011;67659;45.554;11.812;2023-05-07T06:21:39;10.68;;;6.10;;
71671;SDS011;67659;45.554;11.812;2023-05-07T06:24:05;10.55;;;6.25;;
71671;SDS011;67659;45.554;11.812;2023-05-07T06:26:31;11.00;;;5.57;;
71671;SDS011;67659;45.554;11.812;2023-05-07T06:28:57;11.30;;;5.70;;
71671;SDS011;67659;45.554;11.812;2023-05-07T06:31:29;11.95;;;6.00;;
71671;SDS011;67659;45.554;11.812;2023-05-07T06:33:57;11.40;;;6.50;;
71671;SDS011;67659;45.554;11.812;2023-05-07T06:36:24;9.48;;;5.47;;
71671;SDS011;67659;45.554;11.812;2023-05-07T06:38:51;12.10;;;5.95;;
71671;SDS011;67659;45.554;11.812;2023-05-07T06:41:17;8.93;;;5.70;;
71671;SDS011;67659;45.554;11.812;2023-05-07T06:43:44;11.40;;;5.88;;
71671;SDS011;67659;45.554;11.812;2023-05-07T06:46:09;9.63;;;5.93;;
71671;SDS011;67659;45.554;11.812;2023-05-07T06:48:35;11.03;;;6.40;;
71671;SDS011;67659;45.554;11.812;2023-05-07T06:51:01;10.60;;;5.80;;
71671;SDS011;67659;45.554;11.812;2023-05-07T06:53:27;9.73;;;6.13;;
71671;SDS011;67659;45.554;11.812;2023-05-07T06:55:54;8.70;;;5.45;;
71671;SDS011;67659;45.554;11.812;2023-05-07T06:58:20;9.65;;;5.63;;
71671;SDS011;67659;45.554;11.812;2023-05-07T07:00:46;9.52;;;5.55;;
71671;SDS011;67659;45.554;11.812;2023-05-07T07:03:11;9.37;;;5.70;;
71671;SDS011;67659;45.554;11.812;2023-05-07T07:05:37;10.98;;;5.35;;
71671;SDS011;67659;45.554;11.812;2023-05-07T07:08:05;10.80;;;5.68;;
71671;SDS011;67659;45.554;11.812;2023-05-07T07:10:31;11.17;;;6.00;;
71671;SDS011;67659;45.554;11.812;2023-05-07T07:12:57;8.60;;;5.50;;
71671;SDS011;67659;45.554;11.812;2023-05-07T07:15:23;9.07;;;5.72;;
71671;SDS011;67659;45.554;11.812;2023-05-07T07:17:50;9.82;;;5.70;;
71671;SDS011;67659;45.554;11.812;2023-05-07T07:20:16;7.93;;;5.47;;
71671;SDS011;67659;45.554;11.812;2023-05-07T07:22:42;9.03;;;5.40;;
71671;SDS011;67659;45.554;11.812;2023-05-07T07:25:08;10.07;;;5.30;;
71671;SDS011;67659;45.554;11.812;2023-05-07T07:27:34;8.45;;;5.15;;
71671;SDS011;67659;45.554;11.812;2023-05-07T07:30:01;8.05;;;5.13;;
71671;SDS011;67659;45.554;11.812;2023-05-07T07:32:27;9.57;;;5.67;;
71671;SDS011;67659;45.554;11.812;2023-05-07T07:34:53;9.85;;;5.60;;
71671;SDS011;67659;45.554;11.812;2023-05-07T07:37:19;10.15;;;5.55;;
71671;SDS011;67659;45.554;11.812;2023-05-07T07:39:45;14.73;;;5.40;;
71671;SDS011;67659;45.554;11.812;2023-05-07T07:42:11;10.50;;;5.20;;
71671;SDS011;67659;45.554;11.812;2023-05-07T07:44:37;12.38;;;5.47;;
71671;SDS011;67659;45.554;11.812;2023-05-07T07:47:04;11.43;;;5.30;;
71671;SDS011;67659;45.554;11.812;2023-05-07T07:49:30;12.30;;;5.22;;
71671;SDS011;67659;45.554;11.812;2023-05-07T07:51:56;11.38;;;5.65;;
71671;SDS011;67659;45.554;11.812;2023-05-07T07:54:24;9.30;;;4.70;;
71671;SDS011;67659;45.554;11.812;2023-05-07T07:56:50;13.70;;;5.80;;
71671;SDS011;67659;45.554;11.812;2023-05-07T07:59:17;10.77;;;5.10;;
71671;SDS011;67659;45.554;11.812;2023-05-07T08:01:44;10.40;;;5.13;;
71671;SDS011;67659;45.554;11.812;2023-05-07T08:04:10;9.68;;;5.20;;
71671;SDS011;67659;45.554;11.812;2023-05-07T08:06:36;10.00;;;5.27;;
71671;SDS011;67659;45.554;11.812;2023-05-07T08:09:02;12.88;;;5.32;;
71671;SDS011;67659;45.554;11.812;2023-05-07T08:11:28;12.38;;;5.30;;
71671;SDS011;67659;45.554;11.812;2023-05-07T08:13:54;10.57;;;5.22;;
71671;SDS011;67659;45.554;11.812;2023-05-07T08:16:21;9.98;;;5.00;;
71671;SDS011;67659;45.554;11.812;2023-05-07T08:18:47;9.73;;;5.23;;
71671;SDS011;67659;45.554;11.812;2023-05-07T08:21:13;10.52;;;4.90;;
71671;SDS011;67659;45.554;11.812;2023-05-07T08:23:39;11.35;;;5.22;;
71671;SDS011;67659;45.554;11.812;2023-05-07T08:26:04;13.63;;;5.57;;
71671;SDS011;67659;45.554;11.812;2023-05-07T08:28:30;9.63;;;5.10;;
71671;SDS011;67659;45.554;11.812;2023-05-07T08:30:56;10.32;;;5.57;;
71671;SDS011;67659;45.554;11.812;2023-05-07T08:33:24;11.10;;;5.10;;
71671;SDS011;67659;45.554;11.812;2023-05-07T08:35:51;10.98;;;5.75;;
71671;SDS011;67659;45.554;11.812;2023-05-07T08:38:17;12.10;;;6.00;;
71671;SDS011;67659;45.554;11.812;2023-05-07T08:40:43;11.43;;;5.88;;
71671;SDS011;67659;45.554;11.812;2023-05-07T08:43:10;10.18;;;5.68;;
71671;SDS011;67659;45.554;11.812;2023-05-07T08:45:40;9.88;;;5.65;;
71671;SDS011;67659;45.554;11.812;2023-05-07T08:48:14;11.70;;;5.82;;
71671;SDS011;67659;45.554;11.812;2023-05-07T08:50:41;11.20;;;5.70;;
71671;SDS011;67659;45.554;11.812;2023-05-07T08:53:07;12.18;;;5.88;;
71671;SDS011;67659;45.554;11.812;2023-05-07T08:55:33;14.90;;;6.93;;
71671;SDS011;67659;45.554;11.812;2023-05-07T08:58:00;11.65;;;6.30;;
71671;SDS011;67659;45.554;11.812;2023-05-07T09:00:27;11.98;;;6.47;;
71671;SDS011;67659;45.554;11.812;2023-05-07T09:02:53;12.03;;;6.30;;
71671;SDS011;67659;45.554;11.812;2023-05-07T09:05:19;13.43;;;5.70;;
71671;SDS011;67659;45.554;11.812;2023-05-07T09:07:46;12.20;;;5.82;;
71671;SDS011;67659;45.554;11.812;2023-05-07T09:10:12;10.68;;;5.72;;
71671;SDS011;67659;45.554;11.812;2023-05-07T09:12:39;9.52;;;5.25;;
71671;SDS011;67659;45.554;11.812;2023-05-07T09:15:06;13.07;;;5.80;;
71671;SDS011;67659;45.554;11.812;2023-05-07T09:17:32;13.50;;;5.35;;
71671;SDS011;67659;45.554;11.812;2023-05-07T09:20:02;14.40;;;5.50;;
71671;SDS011;67659;45.554;11.812;2023-05-07T09:22:31;10.45;;;5.50;;
71671;SDS011;67659;45.554;11.812;2023-05-07T09:24:58;11.43;;;5.20;;
71671;SDS011;67659;45.554;11.812;2023-05-07T09:27:24;10.10;;;5.47;;
71671;SDS011;67659;45.554;11.812;2023-05-07T09:29:51;11.82;;;5.80;;
71671;SDS011;67659;45.554;11.812;2023-05-07T09:32:17;10.65;;;5.38;;
71671;SDS011;67659;45.554;11.812;2023-05-07T09:34:43;9.75;;;5.22;;
71671;SDS011;67659;45.554;11.812;2023-05-07T09:37:10;11.07;;;5.18;;
71671;SDS011;67659;45.554;11.812;2023-05-07T09:39:46;12.93;;;5.37;;
71671;SDS011;67659;45.554;11.812;2023-05-07T09:42:14;12.60;;;5.57;;
71671;SDS011;67659;45.554;11.812;2023-05-07T09:44:40;11.32;;;5.22;;
71671;SDS011;67659;45.554;11.812;2023-05-07T09:47:08;11.70;;;5.40;;
71671;SDS011;67659;45.554;11.812;2023-05-07T09:49:38;13.38;;;5.60;;
71671;SDS011;67659;45.554;11.812;2023-05-07T09:52:07;14.07;;;5.97;;
71671;SDS011;67659;45.554;11.812;2023-05-07T09:54:35;11.13;;;6.15;;
71671;SDS011;67659;45.554;11.812;2023-05-07T09:57:03;11.77;;;6.53;;
71671;SDS011;67659;45.554;11.812;2023-05-07T09:59:32;14.68;;;6.60;;
71671;SDS011;67659;45.554;11.812;2023-05-07T10:01:59;14.82;;;7.70;;
71671;SDS011;67659;45.554;11.812;2023-05-07T10:04:26;18.03;;;8.43;;
71671;SDS011;67659;45.554;11.812;2023-05-07T10:06:53;15.73;;;8.05;;
71671;SDS011;67659;45.554;11.812;2023-05-07T10:09:21;16.67;;;8.95;;
71671;SDS011;67659;45.554;11.812;2023-05-07T10:11:48;20.15;;;9.15;;
71671;SDS011;67659;45.554;11.812;2023-05-07T10:14:16;18.95;;;9.32;;
71671;SDS011;67659;45.554;11.812;2023-05-07T10:16:43;17.73;;;8.63;;
71671;SDS011;67659;45.554;11.812;2023-05-07T10:19:09;21.65;;;9.70;;
71671;SDS011;67659;45.554;11.812;2023-05-07T10:21:36;18.17;;;9.52;;
71671;SDS011;67659;45.554;11.812;2023-05-07T10:24:05;19.55;;;9.75;;
71671;SDS011;67659;45.554;11.812;2023-05-07T10:26:40;19.55;;;8.95;;
71671;SDS011;67659;45.554;11.812;2023-05-07T10:29:12;16.30;;;9.30;;
71671;SDS011;67659;45.554;11.812;2023-05-07T10:31:55;16.48;;;8.00;;
71671;SDS011;67659;45.554;11.812;2023-05-07T10:34:34;19.13;;;8.25;;
71671;SDS011;67659;45.554;11.812;2023-05-07T10:37:03;18.45;;;8.00;;
71671;SDS011;67659;45.554;11.812;2023-05-07T10:39:31;17.25;;;7.80;;
71671;SDS011;67659;45.554;11.812;2023-05-07T10:42:07;17.07;;;7.63;;
71671;SDS011;67659;45.554;11.812;2023-05-07T10:44:34;14.38;;;7.68;;
71671;SDS011;67659;45.554;11.812;2023-05-07T10:47:10;16.23;;;7.80;;
71671;SDS011;67659;45.554;11.812;2023-05-07T10:52:43;17.45;;;6.93;;
71671;SDS011;67659;45.554;11.812;2023-05-07T10:55:19;14.13;;;6.50;;
71671;SDS011;67659;45.554;11.812;2023-05-07T10:57:47;12.88;;;7.00;;
71671;SDS011;67659;45.554;11.812;2023-05-07T11:03:07;12.43;;;6.13;;
71671;SDS011;67659;45.554;11.812;2023-05-07T11:05:38;11.07;;;6.05;;
71671;SDS011;67659;45.554;11.812;2023-05-07T11:08:07;16.17;;;6.20;;
71671;SDS011;67659;45.554;11.812;2023-05-07T11:13:15;14.57;;;5.75;;
71671;SDS011;67659;45.554;11.812;2023-05-07T11:15:42;13.35;;;6.03;;
71671;SDS011;67659;45.554;11.812;2023-05-07T11:18:11;13.93;;;6.05;;
71671;SDS011;67659;45.554;11.812;2023-05-07T11:20:46;13.00;;;5.60;;
71671;SDS011;67659;45.554;11.812;2023-05-07T11:26:14;12.90;;;5.68;;
71671;SDS011;67659;45.554;11.812;2023-05-07T11:28:42;14.98;;;5.80;;
71671;SDS011;67659;45.554;11.812;2023-05-07T11:31:09;13.43;;;6.30;;
71671;SDS011;67659;45.554;11.812;2023-05-07T11:33:36;13.50;;;6.13;;
71671;SDS011;67659;45.554;11.812;2023-05-07T11:36:04;14.48;;;6.15;;
71671;SDS011;67659;45.554;11.812;2023-05-07T11:38:34;16.77;;;6.22;;
71671;SDS011;67659;45.554;11.812;2023-05-07T11:41:02;16.98;;;6.00;;
71671;SDS011;67659;45.554;11.812;2023-05-07T11:43:31;14.80;;;6.00;;
71671;SDS011;67659;45.554;11.812;2023-05-07T11:48:35;13.98;;;6.07;;
71671;SDS011;67659;45.554;11.812;2023-05-07T11:51:03;12.45;;;5.25;;
71671;SDS011;67659;45.554;11.812;2023-05-07T11:53:38;14.68;;;5.57;;
71671;SDS011;67659;45.554;11.812;2023-05-07T11:56:06;11.52;;;5.55;;
71671;SDS011;67659;45.554;11.812;2023-05-07T11:58:35;11.63;;;5.23;;
71671;SDS011;67659;45.554;11.812;2023-05-07T12:01:07;11.75;;;5.20;;
71671;SDS011;67659;45.554;11.812;2023-05-07T12:03:34;11.32;;;5.63;;
71671;SDS011;67659;45.554;11.812;2023-05-07T12:06:05;12.40;;;5.45;;
71671;SDS011;67659;45.554;11.812;2023-05-07T12:08:31;11.65;;;5.43;;
71671;SDS011;67659;45.554;11.812;2023-05-07T12:11:07;11.47;;;5.50;;
71671;SDS011;67659;45.554;11.812;2023-05-07T12:13:50;12.90;;;5.07;;
71671;SDS011;67659;45.554;11.812;2023-05-07T12:16:20;11.13;;;5.03;;
71671;SDS011;67659;45.554;11.812;2023-05-07T12:19:01;11.60;;;4.88;;
71671;SDS011;67659;45.554;11.812;2023-05-07T12:21:28;13.30;;;5.25;;
71671;SDS011;67659;45.554;11.812;2023-05-07T12:23:54;10.17;;;5.10;;
71671;SDS011;67659;45.554;11.812;2023-05-07T12:26:23;11.52;;;5.40;;
71671;SDS011;67659;45.554;11.812;2023-05-07T12:28:50;12.90;;;5.30;;
71671;SDS011;67659;45.554;11.812;2023-05-07T12:31:19;9.98;;;5.15;;
71671;SDS011;67659;45.554;11.812;2023-05-07T12:33:46;11.05;;;5.43;;
71671;SDS011;67659;45.554;11.812;2023-05-07T12:36:12;10.83;;;5.20;;
71671;SDS011;67659;45.554;11.812;2023-05-07T12:38:39;11.57;;;5.03;;
71671;SDS011;67659;45.554;11.812;2023-05-07T12:41:06;10.30;;;4.97;;
71671;SDS011;67659;45.554;11.812;2023-05-07T12:43:33;11.73;;;5.10;;
71671;SDS011;67659;45.554;11.812;2023-05-07T12:46:00;11.43;;;5.13;;
71671;SDS011;67659;45.554;11.812;2023-05-07T12:48:32;12.63;;;5.13;;
71671;SDS011;67659;45.554;11.812;2023-05-07T12:51:02;11.60;;;4.97;;
71671;SDS011;67659;45.554;11.812;2023-05-07T12:53:32;10.13;;;5.07;;
71671;SDS011;67659;45.554;11.812;2023-05-07T12:55:59;10.57;;;5.00;;
71671;SDS011;67659;45.554;11.812;2023-05-07T12:58:27;10.32;;;5.00;;
71671;SDS011;67659;45.554;11.812;2023-05-07T13:00:55;10.07;;;5.13;;
71671;SDS011;67659;45.554;11.812;2023-05-07T13:03:25;9.52;;;5.20;;
71671;SDS011;67659;45.554;11.812;2023-05-07T13:05:54;10.95;;;5.22;;
71671;SDS011;67659;45.554;11.812;2023-05-07T13:08:31;11.88;;;5.65;;
71671;SDS011;67659;45.554;11.812;2023-05-07T13:11:00;15.98;;;6.97;;
71671;SDS011;67659;45.554;11.812;2023-05-07T13:13:29;11.93;;;7.60;;
71671;SDS011;67659;45.554;11.812;2023-05-07T13:15:56;12.85;;;7.22;;
71671;SDS011;67659;45.554;11.812;2023-05-07T13:18:25;11.82;;;6.57;;
71671;SDS011;67659;45.554;11.812;2023-05-07T13:20:52;11.70;;;7.82;;
71671;SDS011;67659;45.554;11.812;2023-05-07T13:23:19;11.40;;;6.53;;
71671;SDS011;67659;45.554;11.812;2023-05-07T13:25:45;12.93;;;8.30;;
71671;SDS011;67659;45.554;11.812;2023-05-07T13:28:11;11.20;;;7.65;;
71671;SDS011;67659;45.554;11.812;2023-05-07T13:30:40;11.77;;;7.90;;
71671;SDS011;67659;45.554;11.812;2023-05-07T13:33:07;9.48;;;6.90;;
71671;SDS011;67659;45.554;11.812;2023-05-07T13:35:33;13.33;;;8.27;;
71671;SDS011;67659;45.554;11.812;2023-05-07T13:37:59;13.90;;;8.43;;
71671;SDS011;67659;45.554;11.812;2023-05-07T13:40:25;12.30;;;7.47;;
71671;SDS011;67659;45.554;11.812;2023-05-07T13:42:51;11.52;;;7.00;;
71671;SDS011;67659;45.554;11.812;2023-05-07T13:45:18;10.90;;;7.25;;
71671;SDS011;67659;45.554;11.812;2023-05-07T13:47:45;17.05;;;7.00;;
71671;SDS011;67659;45.554;11.812;2023-05-07T13:50:12;12.00;;;6.70;;
71671;SDS011;67659;45.554;11.812;2023-05-07T13:52:41;12.48;;;6.20;;
71671;SDS011;67659;45.554;11.812;2023-05-07T13:55:09;10.32;;;6.18;;
71671;SDS011;67659;45.554;11.812;2023-05-07T13:57:36;10.55;;;6.90;;
71671;SDS011;67659;45.554;11.812;2023-05-07T14:00:03;12.00;;;6.97;;
71671;SDS011;67659;45.554;11.812;2023-05-07T14:02:30;11.97;;;7.03;;
71671;SDS011;67659;45.554;11.812;2023-05-07T14:04:58;11.63;;;7.40;;
71671;SDS011;67659;45.554;11.812;2023-05-07T14:07:24;13.77;;;7.00;;
71671;SDS011;67659;45.554;11.812;2023-05-07T14:09:51;11.73;;;7.00;;
71671;SDS011;67659;45.554;11.812;2023-05-07T14:12:17;11.57;;;6.47;;
71671;SDS011;67659;45.554;11.812;2023-05-07T14:14:46;12.30;;;6.43;;
71671;SDS011;67659;45.554;11.812;2023-05-07T14:17:12;11.40;;;6.32;;
71671;SDS011;67659;45.554;11.812;2023-05-07T14:19:38;12.77;;;7.40;;
71671;SDS011;67659;45.554;11.812;2023-05-07T14:22:04;9.82;;;6.53;;
71671;SDS011;67659;45.554;11.812;2023-05-07T14:24:30;10.30;;;6.60;;
71671;SDS011;67659;45.554;11.812;2023-05-07T14:26:56;14.70;;;7.53;;
71671;SDS011;67659;45.554;11.812;2023-05-07T14:29:22;11.55;;;6.65;;
71671;SDS011;67659;45.554;11.812;2023-05-07T14:31:48;11.75;;;7.05;;
71671;SDS011;67659;45.554;11.812;2023-05-07T14:34:14;12.43;;;7.43;;
71671;SDS011;67659;45.554;11.812;2023-05-07T14:36:40;10.30;;;6.67;;
71671;SDS011;67659;45.554;11.812;2023-05-07T14:39:06;13.98;;;6.63;;
71671;SDS011;67659;45.554;11.812;2023-05-07T14:41:35;11.70;;;6.75;;
71671;SDS011;67659;45.554;11.812;2023-05-07T14:44:01;12.02;;;6.82;;